sensor_id;sensor_type;location;lat;lon;timestamp;P1;durP1;ratioP1;P2;durP2;ratioP2
49998;SDS011;68071;45.062;7.356;2023-04-28T00:00:11;8.77;;;5.78;;
49998;SDS011;68071;45.062;7.356;2023-04-28T00:03:16;7.63;;;6.17;;
49998;SDS011;68071;45.062;7.356;2023-04-28T00:06:20;8.68;;;5.75;;
49998;SDS011;68071;45.062;7.356;2023-04-28T00:09:25;8.68;;;6.28;;
49998;SDS011;68071;45.062;7.356;2023-04-28T00:12:29;8.63;;;5.80;;
49998;SDS011;68071;45.062;7.356;2023-04-28T00:15:33;7.32;;;5.97;;
49998;SDS011;68071;45.062;7.356;2023-04-28T00:18:37;10.15;;;5.85;;
49998;SDS011;68071;45.062;7.356;2023-04-28T00:21:41;8.18;;;5.90;;
49998;SDS011;68071;45.062;7.356;2023-04-28T00:24:45;8.57;;;5.93;;
49998;SDS011;68071;45.062;7.356;2023-04-28T00:27:49;6.97;;;5.63;;
49998;SDS011;68071;45.062;7.356;2023-04-28T00:30:53;7.95;;;5.82;;
49998;SDS011;68071;45.062;7.356;2023-04-28T00:33:57;7.78;;;5.70;;
49998;SDS011;68071;45.062;7.356;2023-04-28T00:37:01;7.25;;;6.07;;
49998;SDS011;68071;45.062;7.356;2023-04-28T00:40:05;9.18;;;6.03;;
49998;SDS011;68071;45.062;7.356;2023-04-28T00:43:09;7.07;;;5.75;;
49998;SDS011;68071;45.062;7.356;2023-04-28T00:46:21;8.20;;;6.22;;
49998;SDS011;68071;45.062;7.356;2023-04-28T00:49:32;6.60;;;5.05;;
49998;SDS011;68071;45.062;7.356;2023-04-28T00:52:37;8.77;;;5.90;;
49998;SDS011;68071;45.062;7.356;2023-04-28T00:55:41;8.85;;;6.85;;
49998;SDS011;68071;45.062;7.356;2023-04-28T00:58:45;9.65;;;6.05;;
49998;SDS011;68071;45.062;7.356;2023-04-28T01:01:49;8.05;;;6.35;;
49998;SDS011;68071;45.062;7.356;2023-04-28T01:04:55;10.75;;;6.72;;
49998;SDS011;68071;45.062;7.356;2023-04-28T01:08:01;9.85;;;6.85;;
49998;SDS011;68071;45.062;7.356;2023-04-28T01:11:05;7.80;;;5.57;;
49998;SDS011;68071;45.062;7.356;2023-04-28T01:14:29;9.70;;;5.70;;
49998;SDS011;68071;45.062;7.356;2023-04-28T01:17:35;9.95;;;6.10;;
49998;SDS011;68071;45.062;7.356;2023-04-28T01:20:38;8.45;;;6.38;;
49998;SDS011;68071;45.062;7.356;2023-04-28T01:23:45;10.25;;;6.68;;
49998;SDS011;68071;45.062;7.356;2023-04-28T01:26:49;8.68;;;6.30;;
49998;SDS011;68071;45.062;7.356;2023-04-28T01:29:53;8.45;;;6.38;;
49998;SDS011;68071;45.062;7.356;2023-04-28T01:32:57;10.30;;;6.30;;
49998;SDS011;68071;45.062;7.356;2023-04-28T01:36:02;7.63;;;5.90;;
49998;SDS011;68071;45.062;7.356;2023-04-28T01:39:06;7.70;;;5.53;;
49998;SDS011;68071;45.062;7.356;2023-04-28T01:42:11;9.30;;;6.32;;
49998;SDS011;68071;45.062;7.356;2023-04-28T01:45:15;11.32;;;6.80;;
49998;SDS011;68071;45.062;7.356;2023-04-28T01:48:19;10.35;;;7.20;;
49998;SDS011;68071;45.062;7.356;2023-04-28T01:51:23;10.02;;;6.47;;
49998;SDS011;68071;45.062;7.356;2023-04-28T01:54:27;6.75;;;5.82;;
49998;SDS011;68071;45.062;7.356;2023-04-28T01:57:32;10.77;;;6.60;;
49998;SDS011;68071;45.062;7.356;2023-04-28T02:00:38;6.65;;;5.85;;
49998;SDS011;68071;45.062;7.356;2023-04-28T02:03:42;8.07;;;6.22;;
49998;SDS011;68071;45.062;7.356;2023-04-28T02:06:46;11.43;;;6.68;;
49998;SDS011;68071;45.062;7.356;2023-04-28T02:09:50;8.82;;;6.05;;
49998;SDS011;68071;45.062;7.356;2023-04-28T02:12:54;8.95;;;6.80;;
49998;SDS011;68071;45.062;7.356;2023-04-28T02:15:59;9.88;;;6.95;;
49998;SDS011;68071;45.062;7.356;2023-04-28T02:19:05;9.20;;;7.13;;
49998;SDS011;68071;45.062;7.356;2023-04-28T02:22:09;7.40;;;6.22;;
49998;SDS011;68071;45.062;7.356;2023-04-28T02:25:13;7.63;;;5.88;;
49998;SDS011;68071;45.062;7.356;2023-04-28T02:28:17;10.30;;;6.32;;
49998;SDS011;68071;45.062;7.356;2023-04-28T02:31:22;8.20;;;6.18;;
49998;SDS011;68071;45.062;7.356;2023-04-28T02:34:25;9.43;;;6.65;;
49998;SDS011;68071;45.062;7.356;2023-04-28T02:37:30;7.20;;;5.65;;
49998;SDS011;68071;45.062;7.356;2023-04-28T02:40:34;7.85;;;5.82;;
49998;SDS011;68071;45.062;7.356;2023-04-28T02:43:38;8.95;;;5.97;;
49998;SDS011;68071;45.062;7.356;2023-04-28T02:46:43;7.75;;;6.15;;
49998;SDS011;68071;45.062;7.356;2023-04-28T02:49:47;9.10;;;6.38;;
49998;SDS011;68071;45.062;7.356;2023-04-28T02:52:52;8.23;;;6.25;;
49998;SDS011;68071;45.062;7.356;2023-04-28T02:55:56;6.47;;;5.28;;
49998;SDS011;68071;45.062;7.356;2023-04-28T02:59:02;7.88;;;5.50;;
49998;SDS011;68071;45.062;7.356;2023-04-28T03:02:06;10.20;;;7.10;;
49998;SDS011;68071;45.062;7.356;2023-04-28T03:05:11;10.00;;;7.37;;
49998;SDS011;68071;45.062;7.356;2023-04-28T03:08:15;8.88;;;6.68;;
49998;SDS011;68071;45.062;7.356;2023-04-28T03:11:19;10.48;;;7.43;;
49998;SDS011;68071;45.062;7.356;2023-04-28T03:14:24;8.45;;;6.78;;
49998;SDS011;68071;45.062;7.356;2023-04-28T03:17:28;8.52;;;6.07;;
49998;SDS011;68071;45.062;7.356;2023-04-28T03:20:32;10.13;;;6.43;;
49998;SDS011;68071;45.062;7.356;2023-04-28T03:23:36;8.55;;;6.15;;
49998;SDS011;68071;45.062;7.356;2023-04-28T03:26:41;10.02;;;6.70;;
49998;SDS011;68071;45.062;7.356;2023-04-28T03:29:46;8.70;;;6.38;;
49998;SDS011;68071;45.062;7.356;2023-04-28T03:32:50;8.88;;;7.72;;
49998;SDS011;68071;45.062;7.356;2023-04-28T03:35:54;10.25;;;6.40;;
49998;SDS011;68071;45.062;7.356;2023-04-28T03:38:57;9.93;;;6.68;;
49998;SDS011;68071;45.062;7.356;2023-04-28T03:42:01;10.75;;;6.75;;
49998;SDS011;68071;45.062;7.356;2023-04-28T03:45:24;10.40;;;6.97;;
49998;SDS011;68071;45.062;7.356;2023-04-28T03:48:28;7.32;;;5.65;;
49998;SDS011;68071;45.062;7.356;2023-04-28T03:51:33;7.13;;;5.47;;
49998;SDS011;68071;45.062;7.356;2023-04-28T03:54:37;8.95;;;6.45;;
49998;SDS011;68071;45.062;7.356;2023-04-28T03:57:41;9.80;;;6.78;;
49998;SDS011;68071;45.062;7.356;2023-04-28T04:00:45;7.72;;;6.20;;
49998;SDS011;68071;45.062;7.356;2023-04-28T04:03:49;10.68;;;6.13;;
49998;SDS011;68071;45.062;7.356;2023-04-28T04:06:55;7.72;;;5.70;;
49998;SDS011;68071;45.062;7.356;2023-04-28T04:09:59;10.75;;;6.82;;
49998;SDS011;68071;45.062;7.356;2023-04-28T04:13:03;9.52;;;6.57;;
49998;SDS011;68071;45.062;7.356;2023-04-28T04:16:07;9.30;;;6.72;;
49998;SDS011;68071;45.062;7.356;2023-04-28T04:19:13;6.90;;;5.20;;
49998;SDS011;68071;45.062;7.356;2023-04-28T04:22:18;7.97;;;6.25;;
49998;SDS011;68071;45.062;7.356;2023-04-28T04:25:22;7.40;;;6.20;;
49998;SDS011;68071;45.062;7.356;2023-04-28T04:28:26;6.72;;;5.68;;
49998;SDS011;68071;45.062;7.356;2023-04-28T04:31:30;7.45;;;5.97;;
49998;SDS011;68071;45.062;7.356;2023-04-28T04:34:35;7.18;;;6.20;;
49998;SDS011;68071;45.062;7.356;2023-04-28T04:37:39;9.65;;;7.13;;
49998;SDS011;68071;45.062;7.356;2023-04-28T04:40:43;8.07;;;5.90;;
49998;SDS011;68071;45.062;7.356;2023-04-28T04:43:46;10.70;;;8.73;;
49998;SDS011;68071;45.062;7.356;2023-04-28T04:46:51;9.43;;;7.53;;
49998;SDS011;68071;45.062;7.356;2023-04-28T04:49:56;8.63;;;6.90;;
49998;SDS011;68071;45.062;7.356;2023-04-28T04:56:08;8.40;;;6.30;;
49998;SDS011;68071;45.062;7.356;2023-04-28T04:59:14;7.32;;;6.63;;
49998;SDS011;68071;45.062;7.356;2023-04-28T05:02:38;7.10;;;5.93;;
49998;SDS011;68071;45.062;7.356;2023-04-28T05:05:42;8.23;;;6.78;;
49998;SDS011;68071;45.062;7.356;2023-04-28T05:08:53;7.45;;;6.20;;
49998;SDS011;68071;45.062;7.356;2023-04-28T05:11:59;7.57;;;6.22;;
49998;SDS011;68071;45.062;7.356;2023-04-28T05:15:04;6.88;;;6.07;;
49998;SDS011;68071;45.062;7.356;2023-04-28T05:18:12;6.60;;;5.88;;
49998;SDS011;68071;45.062;7.356;2023-04-28T05:21:16;6.60;;;5.93;;
49998;SDS011;68071;45.062;7.356;2023-04-28T05:24:20;7.10;;;5.55;;
49998;SDS011;68071;45.062;7.356;2023-04-28T05:27:26;8.50;;;5.47;;
49998;SDS011;68071;45.062;7.356;2023-04-28T05:30:31;7.35;;;5.53;;
49998;SDS011;68071;45.062;7.356;2023-04-28T05:33:35;9.10;;;5.60;;
49998;SDS011;68071;45.062;7.356;2023-04-28T05:36:39;5.10;;;4.60;;
49998;SDS011;68071;45.062;7.356;2023-04-28T05:39:46;7.72;;;5.70;;
49998;SDS011;68071;45.062;7.356;2023-04-28T05:42:49;6.57;;;5.97;;
49998;SDS011;68071;45.062;7.356;2023-04-28T05:45:54;7.18;;;6.35;;
49998;SDS011;68071;45.062;7.356;2023-04-28T05:48:58;6.40;;;5.63;;
49998;SDS011;68071;45.062;7.356;2023-04-28T05:52:04;7.53;;;6.22;;
49998;SDS011;68071;45.062;7.356;2023-04-28T05:55:08;7.63;;;6.53;;
49998;SDS011;68071;45.062;7.356;2023-04-28T05:58:13;9.70;;;6.70;;
49998;SDS011;68071;45.062;7.356;2023-04-28T06:01:17;9.25;;;6.35;;
49998;SDS011;68071;45.062;7.356;2023-04-28T06:04:23;9.02;;;6.28;;
49998;SDS011;68071;45.062;7.356;2023-04-28T06:07:28;6.60;;;5.80;;
49998;SDS011;68071;45.062;7.356;2023-04-28T06:10:32;6.80;;;5.25;;
49998;SDS011;68071;45.062;7.356;2023-04-28T06:13:35;7.03;;;5.53;;
49998;SDS011;68071;45.062;7.356;2023-04-28T06:16:40;7.37;;;5.93;;
49998;SDS011;68071;45.062;7.356;2023-04-28T06:19:44;5.78;;;5.18;;
49998;SDS011;68071;45.062;7.356;2023-04-28T06:22:48;7.05;;;5.72;;
49998;SDS011;68071;45.062;7.356;2023-04-28T06:25:54;8.52;;;6.18;;
49998;SDS011;68071;45.062;7.356;2023-04-28T06:28:57;6.25;;;5.65;;
49998;SDS011;68071;45.062;7.356;2023-04-28T06:32:02;6.60;;;5.90;;
49998;SDS011;68071;45.062;7.356;2023-04-28T06:35:06;7.80;;;6.25;;
49998;SDS011;68071;45.062;7.356;2023-04-28T06:38:10;8.93;;;5.80;;
49998;SDS011;68071;45.062;7.356;2023-04-28T06:41:15;5.95;;;5.30;;
49998;SDS011;68071;45.062;7.356;2023-04-28T06:44:22;9.40;;;7.30;;
49998;SDS011;68071;45.062;7.356;2023-04-28T06:47:26;9.43;;;6.88;;
49998;SDS011;68071;45.062;7.356;2023-04-28T06:50:30;8.93;;;6.40;;
49998;SDS011;68071;45.062;7.356;2023-04-28T06:53:34;8.32;;;7.10;;
49998;SDS011;68071;45.062;7.356;2023-04-28T06:56:38;9.80;;;8.48;;
49998;SDS011;68071;45.062;7.356;2023-04-28T06:59:42;9.85;;;8.60;;
49998;SDS011;68071;45.062;7.356;2023-04-28T07:02:48;9.77;;;7.95;;
49998;SDS011;68071;45.062;7.356;2023-04-28T07:05:52;10.20;;;8.10;;
49998;SDS011;68071;45.062;7.356;2023-04-28T07:08:57;11.55;;;9.68;;
49998;SDS011;68071;45.062;7.356;2023-04-28T07:12:01;12.50;;;10.27;;
49998;SDS011;68071;45.062;7.356;2023-04-28T07:15:06;13.43;;;10.07;;
49998;SDS011;68071;45.062;7.356;2023-04-28T07:18:11;14.90;;;10.68;;
49998;SDS011;68071;45.062;7.356;2023-04-28T07:21:14;10.75;;;9.65;;
49998;SDS011;68071;45.062;7.356;2023-04-28T07:24:19;8.93;;;8.03;;
49998;SDS011;68071;45.062;7.356;2023-04-28T07:27:26;10.43;;;9.27;;
49998;SDS011;68071;45.062;7.356;2023-04-28T07:30:30;9.38;;;8.35;;
49998;SDS011;68071;45.062;7.356;2023-04-28T07:33:33;8.95;;;8.02;;
49998;SDS011;68071;45.062;7.356;2023-04-28T07:36:38;11.48;;;8.38;;
49998;SDS011;68071;45.062;7.356;2023-04-28T07:39:42;8.57;;;7.72;;
49998;SDS011;68071;45.062;7.356;2023-04-28T07:42:46;11.55;;;9.02;;
49998;SDS011;68071;45.062;7.356;2023-04-28T07:45:50;11.77;;;9.90;;
49998;SDS011;68071;45.062;7.356;2023-04-28T07:48:54;12.40;;;9.52;;
49998;SDS011;68071;45.062;7.356;2023-04-28T07:51:59;12.63;;;9.85;;
49998;SDS011;68071;45.062;7.356;2023-04-28T07:55:03;10.38;;;8.50;;
49998;SDS011;68071;45.062;7.356;2023-04-28T07:58:08;10.57;;;8.85;;
49998;SDS011;68071;45.062;7.356;2023-04-28T08:01:12;9.68;;;8.65;;
49998;SDS011;68071;45.062;7.356;2023-04-28T08:04:16;13.15;;;9.35;;
49998;SDS011;68071;45.062;7.356;2023-04-28T08:07:20;12.90;;;9.23;;
49998;SDS011;68071;45.062;7.356;2023-04-28T08:10:24;12.43;;;10.00;;
49998;SDS011;68071;45.062;7.356;2023-04-28T08:13:29;10.65;;;9.18;;
49998;SDS011;68071;45.062;7.356;2023-04-28T08:16:33;11.32;;;10.23;;
49998;SDS011;68071;45.062;7.356;2023-04-28T08:19:40;15.30;;;10.90;;
49998;SDS011;68071;45.062;7.356;2023-04-28T08:22:45;14.00;;;10.95;;
49998;SDS011;68071;45.062;7.356;2023-04-28T08:25:49;12.65;;;9.40;;
49998;SDS011;68071;45.062;7.356;2023-04-28T08:28:53;12.48;;;11.00;;
49998;SDS011;68071;45.062;7.356;2023-04-28T08:31:57;12.15;;;10.60;;
49998;SDS011;68071;45.062;7.356;2023-04-28T08:35:02;13.93;;;10.75;;
49998;SDS011;68071;45.062;7.356;2023-04-28T08:38:06;12.98;;;10.98;;
49998;SDS011;68071;45.062;7.356;2023-04-28T08:41:14;12.65;;;10.80;;
49998;SDS011;68071;45.062;7.356;2023-04-28T08:44:20;12.05;;;10.85;;
49998;SDS011;68071;45.062;7.356;2023-04-28T08:47:35;11.98;;;9.63;;
49998;SDS011;68071;45.062;7.356;2023-04-28T08:50:41;12.57;;;10.10;;
49998;SDS011;68071;45.062;7.356;2023-04-28T08:53:52;12.63;;;10.82;;
49998;SDS011;68071;45.062;7.356;2023-04-28T08:56:58;15.90;;;10.82;;
49998;SDS011;68071;45.062;7.356;2023-04-28T09:00:02;13.20;;;10.38;;
49998;SDS011;68071;45.062;7.356;2023-04-28T09:03:07;20.80;;;11.83;;
49998;SDS011;68071;45.062;7.356;2023-04-28T09:06:11;14.00;;;10.30;;
49998;SDS011;68071;45.062;7.356;2023-04-28T09:09:26;13.02;;;9.52;;
49998;SDS011;68071;45.062;7.356;2023-04-28T09:12:36;14.70;;;11.60;;
49998;SDS011;68071;45.062;7.356;2023-04-28T09:15:40;14.20;;;10.40;;
49998;SDS011;68071;45.062;7.356;2023-04-28T09:18:54;23.05;;;11.75;;
49998;SDS011;68071;45.062;7.356;2023-04-28T09:22:00;17.65;;;9.82;;
49998;SDS011;68071;45.062;7.356;2023-04-28T09:25:11;30.13;;;11.98;;
49998;SDS011;68071;45.062;7.356;2023-04-28T09:28:19;13.05;;;9.48;;
49998;SDS011;68071;45.062;7.356;2023-04-28T09:31:25;14.18;;;9.77;;
49998;SDS011;68071;45.062;7.356;2023-04-28T09:34:41;10.27;;;9.07;;
49998;SDS011;68071;45.062;7.356;2023-04-28T09:37:56;10.43;;;8.25;;
49998;SDS011;68071;45.062;7.356;2023-04-28T09:41:01;8.80;;;7.63;;
49998;SDS011;68071;45.062;7.356;2023-04-28T09:44:09;9.60;;;7.40;;
49998;SDS011;68071;45.062;7.356;2023-04-28T09:47:20;9.98;;;7.28;;
49998;SDS011;68071;45.062;7.356;2023-04-28T09:50:38;8.35;;;6.20;;
49998;SDS011;68071;45.062;7.356;2023-04-28T09:53:44;11.85;;;7.90;;
49998;SDS011;68071;45.062;7.356;2023-04-28T09:56:48;10.85;;;7.15;;
49998;SDS011;68071;45.062;7.356;2023-04-28T09:59:53;8.32;;;7.07;;
49998;SDS011;68071;45.062;7.356;2023-04-28T10:02:58;10.07;;;7.67;;
49998;SDS011;68071;45.062;7.356;2023-04-28T10:06:04;9.52;;;7.43;;
49998;SDS011;68071;45.062;7.356;2023-04-28T10:09:09;24.92;;;9.77;;
49998;SDS011;68071;45.062;7.356;2023-04-28T10:12:18;10.80;;;6.47;;
49998;SDS011;68071;45.062;7.356;2023-04-28T10:15:23;8.25;;;5.95;;
49998;SDS011;68071;45.062;7.356;2023-04-28T10:18:28;8.10;;;5.28;;
49998;SDS011;68071;45.062;7.356;2023-04-28T10:21:34;8.10;;;5.57;;
49998;SDS011;68071;45.062;7.356;2023-04-28T10:25:36;9.43;;;6.20;;
49998;SDS011;68071;45.062;7.356;2023-04-28T10:28:14;9.70;;;5.95;;
49998;SDS011;68071;45.062;7.356;2023-04-28T10:31:20;7.53;;;5.97;;
49998;SDS011;68071;45.062;7.356;2023-04-28T10:34:25;6.72;;;5.45;;
49998;SDS011;68071;45.062;7.356;2023-04-28T10:41:06;12.50;;;6.55;;
49998;SDS011;68071;45.062;7.356;2023-04-28T10:54:12;6.22;;;5.60;;
49998;SDS011;68071;45.062;7.356;2023-04-28T10:57:17;8.52;;;5.97;;
49998;SDS011;68071;45.062;7.356;2023-04-28T11:00:26;7.40;;;6.20;;
49998;SDS011;68071;45.062;7.356;2023-04-28T11:07:08;7.40;;;5.50;;
49998;SDS011;68071;45.062;7.356;2023-04-28T11:10:15;7.53;;;5.47;;
49998;SDS011;68071;45.062;7.356;2023-04-28T11:13:29;8.55;;;5.45;;
49998;SDS011;68071;45.062;7.356;2023-04-28T11:16:57;9.25;;;5.00;;
49998;SDS011;68071;45.062;7.356;2023-04-28T11:20:05;7.72;;;5.78;;
49998;SDS011;68071;45.062;7.356;2023-04-28T11:23:13;5.93;;;4.93;;
49998;SDS011;68071;45.062;7.356;2023-04-28T11:26:18;9.80;;;5.47;;
49998;SDS011;68071;45.062;7.356;2023-04-28T11:29:35;6.78;;;4.85;;
49998;SDS011;68071;45.062;7.356;2023-04-28T11:32:41;8.52;;;5.40;;
49998;SDS011;68071;45.062;7.356;2023-04-28T11:35:45;9.85;;;5.80;;
49998;SDS011;68071;45.062;7.356;2023-04-28T11:38:49;7.07;;;5.32;;
49998;SDS011;68071;45.062;7.356;2023-04-28T11:41:54;9.93;;;5.80;;
49998;SDS011;68071;45.062;7.356;2023-04-28T11:44:59;6.20;;;5.22;;
49998;SDS011;68071;45.062;7.356;2023-04-28T11:48:19;6.27;;;5.13;;
49998;SDS011;68071;45.062;7.356;2023-04-28T11:51:34;6.40;;;5.35;;
49998;SDS011;68071;45.062;7.356;2023-04-28T11:54:40;6.80;;;5.38;;
49998;SDS011;68071;45.062;7.356;2023-04-28T11:57:47;6.07;;;5.47;;
49998;SDS011;68071;45.062;7.356;2023-04-28T12:01:34;9.82;;;5.70;;
49998;SDS011;68071;45.062;7.356;2023-04-28T12:04:25;7.28;;;5.57;;
49998;SDS011;68071;45.062;7.356;2023-04-28T12:07:38;8.65;;;5.30;;
49998;SDS011;68071;45.062;7.356;2023-04-28T12:11:05;7.88;;;5.32;;
49998;SDS011;68071;45.062;7.356;2023-04-28T12:14:15;10.57;;;6.28;;
49998;SDS011;68071;45.062;7.356;2023-04-28T12:17:36;7.32;;;5.28;;
49998;SDS011;68071;45.062;7.356;2023-04-28T12:20:42;8.70;;;5.57;;
49998;SDS011;68071;45.062;7.356;2023-04-28T12:23:46;6.55;;;5.38;;
49998;SDS011;68071;45.062;7.356;2023-04-28T12:26:50;8.40;;;5.57;;
49998;SDS011;68071;45.062;7.356;2023-04-28T12:29:55;7.63;;;5.70;;
49998;SDS011;68071;45.062;7.356;2023-04-28T12:33:01;7.15;;;5.45;;
49998;SDS011;68071;45.062;7.356;2023-04-28T12:36:05;7.88;;;5.78;;
49998;SDS011;68071;45.062;7.356;2023-04-28T12:39:13;7.60;;;5.40;;
49998;SDS011;68071;45.062;7.356;2023-04-28T12:42:19;6.68;;;5.00;;
49998;SDS011;68071;45.062;7.356;2023-04-28T12:45:25;6.05;;;5.43;;
49998;SDS011;68071;45.062;7.356;2023-04-28T12:48:29;6.53;;;5.22;;
49998;SDS011;68071;45.062;7.356;2023-04-28T12:51:34;7.80;;;5.55;;
49998;SDS011;68071;45.062;7.356;2023-04-28T12:54:38;5.82;;;5.18;;
49998;SDS011;68071;45.062;7.356;2023-04-28T12:57:49;6.72;;;5.28;;
49998;SDS011;68071;45.062;7.356;2023-04-28T13:00:53;8.73;;;5.38;;
49998;SDS011;68071;45.062;7.356;2023-04-28T13:03:57;7.55;;;5.80;;
49998;SDS011;68071;45.062;7.356;2023-04-28T13:07:01;8.52;;;5.60;;
49998;SDS011;68071;45.062;7.356;2023-04-28T13:10:06;7.93;;;5.50;;
49998;SDS011;68071;45.062;7.356;2023-04-28T13:13:11;6.72;;;5.75;;
49998;SDS011;68071;45.062;7.356;2023-04-28T13:16:15;7.78;;;6.30;;
49998;SDS011;68071;45.062;7.356;2023-04-28T13:19:19;9.65;;;6.90;;
49998;SDS011;68071;45.062;7.356;2023-04-28T13:22:23;7.70;;;6.47;;
49998;SDS011;68071;45.062;7.356;2023-04-28T13:25:27;8.90;;;5.68;;
49998;SDS011;68071;45.062;7.356;2023-04-28T13:28:32;11.50;;;6.63;;
49998;SDS011;68071;45.062;7.356;2023-04-28T13:31:36;7.95;;;6.10;;
49998;SDS011;68071;45.062;7.356;2023-04-28T13:34:40;6.97;;;6.00;;
49998;SDS011;68071;45.062;7.356;2023-04-28T13:37:44;10.48;;;6.45;;
49998;SDS011;68071;45.062;7.356;2023-04-28T13:40:49;10.87;;;6.90;;
49998;SDS011;68071;45.062;7.356;2023-04-28T13:43:53;9.67;;;6.30;;
49998;SDS011;68071;45.062;7.356;2023-04-28T13:46:57;8.88;;;6.88;;
49998;SDS011;68071;45.062;7.356;2023-04-28T13:50:02;7.70;;;6.67;;
49998;SDS011;68071;45.062;7.356;2023-04-28T13:53:06;9.23;;;6.47;;
49998;SDS011;68071;45.062;7.356;2023-04-28T13:56:11;11.07;;;7.30;;
49998;SDS011;68071;45.062;7.356;2023-04-28T13:59:15;7.75;;;6.95;;
49998;SDS011;68071;45.062;7.356;2023-04-28T14:02:19;19.73;;;7.60;;
49998;SDS011;68071;45.062;7.356;2023-04-28T14:05:23;11.50;;;7.38;;
49998;SDS011;68071;45.062;7.356;2023-04-28T14:08:28;7.57;;;6.72;;
49998;SDS011;68071;45.062;7.356;2023-04-28T14:11:32;10.03;;;7.30;;
49998;SDS011;68071;45.062;7.356;2023-04-28T14:14:36;10.30;;;7.80;;
49998;SDS011;68071;45.062;7.356;2023-04-28T14:17:40;11.35;;;8.10;;
49998;SDS011;68071;45.062;7.356;2023-04-28T14:20:44;9.85;;;8.02;;
49998;SDS011;68071;45.062;7.356;2023-04-28T14:23:49;8.25;;;7.45;;
49998;SDS011;68071;45.062;7.356;2023-04-28T14:26:52;10.18;;;9.02;;
49998;SDS011;68071;45.062;7.356;2023-04-28T14:29:56;10.65;;;8.38;;
49998;SDS011;68071;45.062;7.356;2023-04-28T14:33:00;39.85;;;22.90;;
49998;SDS011;68071;45.062;7.356;2023-04-28T14:36:04;8.25;;;6.78;;
49998;SDS011;68071;45.062;7.356;2023-04-28T14:39:08;10.60;;;7.35;;
49998;SDS011;68071;45.062;7.356;2023-04-28T14:42:13;31.40;;;10.65;;
49998;SDS011;68071;45.062;7.356;2023-04-28T14:45:17;14.33;;;7.87;;
49998;SDS011;68071;45.062;7.356;2023-04-28T14:48:21;11.03;;;7.33;;
49998;SDS011;68071;45.062;7.356;2023-04-28T14:51:26;7.88;;;6.75;;
49998;SDS011;68071;45.062;7.356;2023-04-28T14:54:31;7.88;;;6.88;;
49998;SDS011;68071;45.062;7.356;2023-04-28T14:57:35;48.85;;;8.88;;
49998;SDS011;68071;45.062;7.356;2023-04-28T15:00:40;9.95;;;6.60;;
49998;SDS011;68071;45.062;7.356;2023-04-28T15:03:44;8.30;;;6.78;;
49998;SDS011;68071;45.062;7.356;2023-04-28T15:06:48;8.82;;;5.85;;
49998;SDS011;68071;45.062;7.356;2023-04-28T15:09:52;9.32;;;6.78;;
49998;SDS011;68071;45.062;7.356;2023-04-28T15:12:56;6.73;;;5.87;;
49998;SDS011;68071;45.062;7.356;2023-04-28T15:16:01;8.60;;;6.47;;
49998;SDS011;68071;45.062;7.356;2023-04-28T15:19:05;11.02;;;7.20;;
49998;SDS011;68071;45.062;7.356;2023-04-28T15:22:09;8.95;;;7.30;;
49998;SDS011;68071;45.062;7.356;2023-04-28T15:25:13;8.90;;;6.57;;
49998;SDS011;68071;45.062;7.356;2023-04-28T15:28:18;7.53;;;6.40;;
49998;SDS011;68071;45.062;7.356;2023-04-28T15:31:22;9.82;;;7.18;;
49998;SDS011;68071;45.062;7.356;2023-04-28T15:34:28;9.85;;;6.95;;
49998;SDS011;68071;45.062;7.356;2023-04-28T15:37:42;11.30;;;6.95;;
49998;SDS011;68071;45.062;7.356;2023-04-28T15:40:49;12.05;;;6.47;;
49998;SDS011;68071;45.062;7.356;2023-04-28T15:43:53;12.52;;;6.45;;
49998;SDS011;68071;45.062;7.356;2023-04-28T15:46:58;7.57;;;6.35;;
49998;SDS011;68071;45.062;7.356;2023-04-28T15:50:03;9.40;;;6.50;;
49998;SDS011;68071;45.062;7.356;2023-04-28T15:53:07;7.30;;;5.32;;
49998;SDS011;68071;45.062;7.356;2023-04-28T15:56:11;6.67;;;5.97;;
49998;SDS011;68071;45.062;7.356;2023-04-28T15:59:16;9.02;;;5.60;;
49998;SDS011;68071;45.062;7.356;2023-04-28T16:02:21;8.43;;;6.18;;
49998;SDS011;68071;45.062;7.356;2023-04-28T16:05:25;7.88;;;5.47;;
49998;SDS011;68071;45.062;7.356;2023-04-28T16:08:30;7.25;;;6.25;;
49998;SDS011;68071;45.062;7.356;2023-04-28T16:11:34;9.87;;;5.93;;
49998;SDS011;68071;45.062;7.356;2023-04-28T16:14:41;7.55;;;6.32;;
49998;SDS011;68071;45.062;7.356;2023-04-28T16:17:45;58.80;;;11.02;;
49998;SDS011;68071;45.062;7.356;2023-04-28T16:20:49;12.47;;;9.90;;
49998;SDS011;68071;45.062;7.356;2023-04-28T16:23:54;7.63;;;6.47;;
49998;SDS011;68071;45.062;7.356;2023-04-28T16:26:59;8.05;;;6.00;;
49998;SDS011;68071;45.062;7.356;2023-04-28T16:30:03;13.50;;;6.60;;
49998;SDS011;68071;45.062;7.356;2023-04-28T16:33:09;12.82;;;7.07;;
49998;SDS011;68071;45.062;7.356;2023-04-28T16:36:19;10.80;;;6.60;;
49998;SDS011;68071;45.062;7.356;2023-04-28T16:39:24;7.43;;;5.82;;
49998;SDS011;68071;45.062;7.356;2023-04-28T16:42:28;10.03;;;5.40;;
49998;SDS011;68071;45.062;7.356;2023-04-28T16:45:32;8.13;;;5.03;;
49998;SDS011;68071;45.062;7.356;2023-04-28T16:48:36;5.68;;;4.90;;
49998;SDS011;68071;45.062;7.356;2023-04-28T16:51:39;6.43;;;5.00;;
49998;SDS011;68071;45.062;7.356;2023-04-28T16:55:01;8.30;;;4.68;;
49998;SDS011;68071;45.062;7.356;2023-04-28T16:58:05;10.25;;;5.85;;
49998;SDS011;68071;45.062;7.356;2023-04-28T17:01:10;7.35;;;4.47;;
49998;SDS011;68071;45.062;7.356;2023-04-28T17:04:15;10.93;;;5.35;;
49998;SDS011;68071;45.062;7.356;2023-04-28T17:07:19;5.80;;;5.03;;
49998;SDS011;68071;45.062;7.356;2023-04-28T17:10:23;8.20;;;5.50;;
49998;SDS011;68071;45.062;7.356;2023-04-28T17:13:27;7.47;;;5.50;;
49998;SDS011;68071;45.062;7.356;2023-04-28T17:16:32;7.10;;;5.35;;
49998;SDS011;68071;45.062;7.356;2023-04-28T17:19:40;7.20;;;4.47;;
49998;SDS011;68071;45.062;7.356;2023-04-28T17:22:45;7.57;;;3.63;;
49998;SDS011;68071;45.062;7.356;2023-04-28T17:28:54;5.75;;;5.15;;
49998;SDS011;68071;45.062;7.356;2023-04-28T17:31:58;7.28;;;4.72;;
49998;SDS011;68071;45.062;7.356;2023-04-28T17:35:02;6.35;;;5.03;;
49998;SDS011;68071;45.062;7.356;2023-04-28T17:38:07;8.23;;;5.22;;
49998;SDS011;68071;45.062;7.356;2023-04-28T17:41:11;5.95;;;4.95;;
49998;SDS011;68071;45.062;7.356;2023-04-28T17:44:16;5.82;;;5.13;;
49998;SDS011;68071;45.062;7.356;2023-04-28T17:47:20;6.60;;;4.57;;
49998;SDS011;68071;45.062;7.356;2023-04-28T17:50:24;6.30;;;4.20;;
49998;SDS011;68071;45.062;7.356;2023-04-28T17:53:29;5.80;;;4.63;;
49998;SDS011;68071;45.062;7.356;2023-04-28T17:56:33;5.30;;;4.70;;
49998;SDS011;68071;45.062;7.356;2023-04-28T17:59:39;5.22;;;4.65;;
49998;SDS011;68071;45.062;7.356;2023-04-28T18:02:44;5.60;;;4.25;;
49998;SDS011;68071;45.062;7.356;2023-04-28T18:05:49;4.75;;;4.05;;
49998;SDS011;68071;45.062;7.356;2023-04-28T18:08:53;5.30;;;4.80;;
49998;SDS011;68071;45.062;7.356;2023-04-28T18:11:58;5.75;;;5.20;;
49998;SDS011;68071;45.062;7.356;2023-04-28T18:15:04;7.38;;;4.78;;
49998;SDS011;68071;45.062;7.356;2023-04-28T18:18:10;7.22;;;4.90;;
49998;SDS011;68071;45.062;7.356;2023-04-28T18:21:15;5.35;;;4.85;;
49998;SDS011;68071;45.062;7.356;2023-04-28T18:24:20;7.78;;;5.18;;
49998;SDS011;68071;45.062;7.356;2023-04-28T18:27:24;7.10;;;5.07;;
49998;SDS011;68071;45.062;7.356;2023-04-28T18:30:29;6.85;;;5.15;;
49998;SDS011;68071;45.062;7.356;2023-04-28T18:33:42;7.82;;;4.93;;
49998;SDS011;68071;45.062;7.356;2023-04-28T18:36:47;7.45;;;4.93;;
49998;SDS011;68071;45.062;7.356;2023-04-28T18:39:56;8.95;;;5.47;;
49998;SDS011;68071;45.062;7.356;2023-04-28T18:43:00;7.85;;;6.15;;
49998;SDS011;68071;45.062;7.356;2023-04-28T18:46:07;8.73;;;5.45;;
49998;SDS011;68071;45.062;7.356;2023-04-28T18:49:11;7.68;;;5.15;;
49998;SDS011;68071;45.062;7.356;2023-04-28T18:52:15;5.72;;;4.80;;
49998;SDS011;68071;45.062;7.356;2023-04-28T18:55:19;6.40;;;4.68;;